createdAt,value
2023-04-15T00:00:59.725Z,99566.09
2023-04-15T00:03:28.733Z,99559.59
2023-04-15T00:05:58.824Z,99557.84
2023-04-15T00:08:26.808Z,99558.50
2023-04-15T00:10:54.990Z,99557.03
2023-04-15T00:13:22.891Z,99556.06
2023-04-15T00:15:50.799Z,99556.06
2023-04-15T00:18:19.063Z,99552.22
2023-04-15T00:20:47.168Z,99558.59
2023-04-15T00:23:16.532Z,99549.66
2023-04-15T00:25:44.846Z,99543.25
2023-04-15T00:28:15.199Z,99538.06
2023-04-15T00:30:44.009Z,99537.94
2023-04-15T00:33:12.245Z,99542.97
2023-04-15T00:35:40.543Z,99533.19
2023-04-15T00:38:09.031Z,99528.94
2023-04-15T00:40:39.014Z,99527.87
2023-04-15T00:43:07.144Z,99522.19
2023-04-15T00:45:35.076Z,99517.47
2023-04-15T00:48:03.627Z,99514.72
2023-04-15T00:50:31.782Z,99514.94
2023-04-15T00:52:59.700Z,99515.31
2023-04-15T00:55:28.173Z,99510.34
2023-04-15T00:57:58.012Z,99508.66
2023-04-15T01:00:26.738Z,99511.31
2023-04-15T01:02:56.236Z,99503.94
2023-04-15T01:05:25.104Z,99496.47
2023-04-15T01:07:53.037Z,99501.78
2023-04-15T01:10:22.144Z,99492.22
2023-04-15T01:12:50.278Z,99492.47
2023-04-15T01:15:20.464Z,99488.75
2023-04-15T01:17:49.217Z,99490.22
2023-04-15T01:20:17.221Z,99492.69
2023-04-15T01:22:45.403Z,99501.03
2023-04-15T01:25:18.795Z,99502.62
2023-04-15T01:27:48.207Z,99494.03
2023-04-15T01:30:17.572Z,99498.50
2023-04-15T01:32:46.094Z,99493.44
2023-04-15T01:35:33.124Z,99493.28
2023-04-15T01:38:06.566Z,99489.44
2023-04-15T01:40:35.059Z,99490.66
2023-04-15T01:43:05.906Z,99487.03
2023-04-15T01:45:35.019Z,99489.31
2023-04-15T01:48:09.869Z,99483.41
2023-04-15T01:50:40.221Z,99477.50
2023-04-15T01:53:09.846Z,99480.41
2023-04-15T01:55:39.216Z,99482.06
2023-04-15T01:58:10.478Z,99473.19
2023-04-15T02:00:39.943Z,99484.53
2023-04-15T02:03:09.789Z,99479.22
2023-04-15T02:05:40.693Z,99477.66
2023-04-15T02:08:10.691Z,99481.50
2023-04-15T02:10:40.222Z,99470.31
2023-04-15T02:13:11.006Z,99472.69
2023-04-15T02:15:40.531Z,99470.28
2023-04-15T02:18:09.784Z,99470.75
2023-04-15T02:20:39.650Z,99471.00
2023-04-15T02:23:09.120Z,99465.94
2023-04-15T02:25:38.940Z,99461.81
2023-04-15T02:28:08.434Z,99473.91
2023-04-15T02:30:40.814Z,99461.47
2023-04-15T02:33:10.260Z,99455.19
2023-04-15T02:35:42.604Z,99455.78
2023-04-15T02:38:14.644Z,99457.31
2023-04-15T02:40:44.056Z,99463.19
2023-04-15T02:43:13.512Z,99461.00
2023-04-15T02:45:44.532Z,99455.94
2023-04-15T02:48:14.106Z,99453.78
2023-04-15T02:50:43.674Z,99455.94
2023-04-15T02:53:15.514Z,99452.34
2023-04-15T02:55:45.011Z,99452.69
2023-04-15T02:58:14.520Z,99441.34
2023-04-15T03:00:45.151Z,99435.56
2023-04-15T03:03:15.313Z,99434.09
2023-04-15T03:05:45.450Z,99437.87
2023-04-15T03:08:15.784Z,99428.06
2023-04-15T03:10:45.018Z,99437.25
2023-04-15T03:13:14.517Z,99434.44
2023-04-15T03:15:46.686Z,99428.47
2023-04-15T03:18:18.442Z,99425.06
2023-04-15T03:20:47.663Z,99427.84
2023-04-15T03:23:17.477Z,99432.88
2023-04-15T03:25:47.306Z,99428.75
2023-04-15T03:28:17.129Z,99423.94
2023-04-15T03:30:48.166Z,99423.81
2023-04-15T03:33:17.696Z,99433.84
2023-04-15T03:35:46.997Z,99428.53
2023-04-15T03:38:16.388Z,99428.84
2023-04-15T03:40:47.974Z,99433.56
2023-04-15T03:43:17.387Z,99427.53
2023-04-15T03:45:48.169Z,99425.62
2023-04-15T03:48:18.298Z,99418.66
2023-04-15T03:50:48.341Z,99425.47
2023-04-15T03:53:17.515Z,99433.69
2023-04-15T03:55:46.713Z,99430.31
2023-04-15T03:58:16.339Z,99426.69
2023-04-15T04:00:45.542Z,99428.09
2023-04-15T04:03:16.591Z,99429.47
2023-04-15T04:05:45.982Z,99422.97
2023-04-15T04:08:16.361Z,99427.91
2023-04-15T04:10:45.553Z,99426.28
2023-04-15T04:13:14.776Z,99426.59
2023-04-15T04:15:44.297Z,99422.47
2023-04-15T04:18:13.604Z,99426.81
2023-04-15T04:20:44.172Z,99427.97
2023-04-15T04:23:13.763Z,99429.31
2023-04-15T04:25:46.371Z,99427.06
2023-04-15T04:28:15.863Z,99430.28
2023-04-15T04:30:45.111Z,99433.31
2023-04-15T04:33:14.291Z,99433.41
2023-04-15T04:35:45.043Z,99431.84
2023-04-15T04:38:14.221Z,99435.34
2023-04-15T04:40:43.740Z,99445.22
2023-04-15T04:43:14.893Z,99445.75
2023-04-15T04:45:44.362Z,99441.47
2023-04-15T04:48:13.544Z,99451.16
2023-04-15T04:50:42.860Z,99441.50
2023-04-15T04:53:13.871Z,99446.97
2023-04-15T04:55:43.113Z,99446.59
2023-04-15T04:58:12.646Z,99443.09
2023-04-15T05:00:42.171Z,99444.78
2023-04-15T05:03:11.666Z,99445.00
2023-04-15T05:05:41.528Z,99447.06
2023-04-15T05:08:11.252Z,99447.41
2023-04-15T05:10:42.196Z,99453.78
2023-04-15T05:13:11.551Z,99446.44
2023-04-15T05:15:43.314Z,99439.16
2023-04-15T05:18:12.555Z,99444.13
2023-04-15T05:20:42.178Z,99437.84
2023-04-15T05:23:13.348Z,99431.00
2023-04-15T05:25:44.293Z,99446.13
2023-04-15T05:28:13.515Z,99436.84
2023-04-15T05:30:43.115Z,99440.44
2023-04-15T05:33:12.568Z,99444.97
2023-04-15T05:35:41.776Z,99437.69
2023-04-15T05:38:11.271Z,99438.41
2023-04-15T05:40:40.681Z,99440.78
2023-04-15T05:43:11.351Z,99434.91
2023-04-15T05:45:40.830Z,99435.13
2023-04-15T05:48:10.160Z,99434.12
2023-04-15T05:50:42.816Z,99433.53
2023-04-15T05:53:12.341Z,99439.97
2023-04-15T05:55:41.757Z,99436.84
2023-04-15T05:58:12.577Z,99432.91
2023-04-15T06:00:42.127Z,99432.28
2023-04-15T06:03:12.482Z,99436.31
2023-04-15T06:05:41.955Z,99441.22
2023-04-15T06:08:11.521Z,99442.41
2023-04-15T06:10:40.787Z,99428.25
2023-04-15T06:13:10.004Z,99438.91
2023-04-15T06:15:41.213Z,99441.56
2023-04-15T06:18:11.712Z,99439.00
2023-04-15T06:20:41.943Z,99431.28
2023-04-15T06:23:11.339Z,99433.19
2023-04-15T06:25:41.101Z,99439.25
2023-04-15T06:28:10.415Z,99437.66
2023-04-15T06:30:41.169Z,99439.53
2023-04-15T06:33:10.844Z,99433.75
2023-04-15T06:35:40.595Z,99437.00
2023-04-15T06:38:09.802Z,99442.41
2023-04-15T06:40:40.205Z,99444.31
2023-04-15T06:43:10.332Z,99436.69
2023-04-15T06:45:41.184Z,99438.50
2023-04-15T06:48:10.405Z,99443.88
2023-04-15T06:50:40.318Z,99448.09
2023-04-15T06:53:09.606Z,99443.69
2023-04-15T06:55:38.746Z,99437.66
2023-04-15T06:58:08.265Z,99435.84
2023-04-15T07:00:39.151Z,99448.88
2023-04-15T07:03:11.297Z,99442.31
2023-04-15T07:05:40.605Z,99448.75
2023-04-15T07:08:10.025Z,99444.44
2023-04-15T07:10:39.245Z,99443.22
2023-04-15T07:13:08.929Z,99445.28
2023-04-15T07:15:38.591Z,99446.91
2023-04-15T07:18:07.900Z,99448.00
2023-04-15T07:20:38.653Z,99459.37
2023-04-15T07:23:08.270Z,99461.25
2023-04-15T07:25:37.684Z,99459.28
2023-04-15T07:28:06.979Z,99463.59
2023-04-15T07:30:36.750Z,99464.44
2023-04-15T07:33:06.040Z,99461.50
2023-04-15T07:35:35.261Z,99462.19
2023-04-15T07:38:06.178Z,99463.88
2023-04-15T07:40:35.414Z,99459.47
2023-04-15T07:43:05.371Z,99468.81
2023-04-15T07:45:35.602Z,99465.66
2023-04-15T07:48:05.883Z,99467.37
2023-04-15T07:50:35.093Z,99465.97
2023-04-15T07:53:06.417Z,99467.66
2023-04-15T07:55:35.704Z,99471.22
2023-04-15T07:58:05.187Z,99469.22
2023-04-15T08:00:34.415Z,99483.06
2023-04-15T08:03:04.241Z,99470.13
2023-04-15T08:05:33.736Z,99476.63
2023-04-15T08:08:02.928Z,99490.59
2023-04-15T08:10:33.943Z,99493.56
2023-04-15T08:13:03.401Z,99479.75
2023-04-15T08:15:33.450Z,99484.66
2023-04-15T08:18:02.884Z,99493.56
2023-04-15T08:20:32.593Z,99490.03
2023-04-15T08:23:02.231Z,99483.47
2023-04-15T08:25:33.386Z,99484.59
2023-04-15T08:28:05.515Z,99494.56
2023-04-15T08:30:34.916Z,99497.22
2023-04-15T08:33:04.632Z,99498.19
2023-04-15T08:35:33.896Z,99506.13
2023-04-15T08:38:03.101Z,99499.66
2023-04-15T08:40:43.237Z,99499.03
2023-04-15T08:43:16.340Z,99505.66
2023-04-15T08:45:48.642Z,99510.81
2023-04-15T08:48:18.653Z,99498.78
2023-04-15T08:50:49.271Z,99506.37
2023-04-15T08:53:19.223Z,99509.62
2023-04-15T08:55:53.485Z,99516.09
2023-04-15T08:58:23.088Z,99519.75
2023-04-15T09:00:52.751Z,99513.03
2023-04-15T09:03:23.675Z,99517.25
2023-04-15T09:05:53.380Z,99519.66
2023-04-15T09:08:22.700Z,99526.22
2023-04-15T09:10:53.514Z,99519.66
2023-04-15T09:13:23.113Z,99525.84
2023-04-15T09:15:53.676Z,99530.63
2023-04-15T09:18:30.751Z,99534.28
2023-04-15T09:21:06.858Z,99533.44
2023-04-15T09:23:37.061Z,99537.78
2023-04-15T09:26:07.993Z,99530.66
2023-04-15T09:28:43.380Z,99528.44
2023-04-15T09:31:13.008Z,99534.75
2023-04-15T09:33:56.751Z,99533.19
2023-04-15T09:36:29.689Z,99535.44
2023-04-15T09:39:01.102Z,99548.53
2023-04-15T09:41:31.687Z,99542.75
2023-04-15T09:44:01.723Z,99552.88
2023-04-15T09:46:44.161Z,99547.69
2023-04-15T09:49:13.869Z,99553.31
2023-04-15T09:51:48.652Z,99549.53
2023-04-15T09:54:34.998Z,99548.97
2023-04-15T09:57:10.186Z,99557.97
2023-04-15T09:59:40.512Z,99561.91
2023-04-15T10:02:10.311Z,99557.41
2023-04-15T10:04:42.479Z,99557.00
2023-04-15T10:07:13.446Z,99562.88
2023-04-15T10:09:45.839Z,99561.63
2023-04-15T10:12:18.542Z,99571.72
2023-04-15T10:14:53.752Z,99567.37
2023-04-15T10:17:23.840Z,99572.84
2023-04-15T10:19:56.472Z,99570.19
2023-04-15T10:22:28.141Z,99573.41
2023-04-15T10:24:58.172Z,99573.56
2023-04-15T10:27:29.936Z,99573.84
2023-04-15T10:30:03.051Z,99584.38
2023-04-15T10:32:33.004Z,99582.69
2023-04-15T10:35:04.295Z,99581.28
2023-04-15T10:37:37.844Z,99578.06
2023-04-15T10:40:28.555Z,99581.41
2023-04-15T10:43:01.014Z,99578.75
2023-04-15T10:45:35.203Z,99587.34
2023-04-15T10:48:07.975Z,99587.75
2023-04-15T10:50:39.465Z,99582.25
2023-04-15T10:53:11.339Z,99590.13
2023-04-15T10:55:40.953Z,99585.62
2023-04-15T10:58:13.650Z,99596.87
2023-04-15T11:00:52.297Z,99593.62
2023-04-15T11:03:38.861Z,99598.56
2023-04-15T11:06:09.041Z,99598.28
2023-04-15T11:08:59.570Z,99590.97
2023-04-15T11:12:08.837Z,99600.25
2023-04-15T11:14:43.325Z,99598.97
2023-04-15T11:17:13.128Z,99600.53
2023-04-15T11:19:42.579Z,99604.91
2023-04-15T11:22:12.563Z,99612.47
2023-04-15T11:24:49.853Z,99617.12
2023-04-15T11:27:23.513Z,99615.00
2023-04-15T11:29:54.476Z,99615.84
2023-04-15T11:32:23.775Z,99621.06
2023-04-15T11:34:53.366Z,99630.31
2023-04-15T11:37:29.684Z,99629.06
2023-04-15T11:39:59.298Z,99618.09
2023-04-15T11:42:39.300Z,99630.31
2023-04-15T11:45:17.881Z,99631.44
2023-04-15T11:47:47.194Z,99637.19
2023-04-15T11:50:18.606Z,99634.50
2023-04-15T11:52:56.675Z,99638.75
2023-04-15T11:55:25.735Z,99647.03
2023-04-15T11:58:08.219Z,99646.03
2023-04-15T12:00:39.985Z,99650.84
2023-04-15T12:03:30.254Z,99648.31
2023-04-15T12:06:11.267Z,99654.06
2023-04-15T12:09:04.929Z,99656.34
2023-04-15T12:11:41.149Z,99656.88
2023-04-15T12:14:12.624Z,99656.16
2023-04-15T12:16:47.837Z,99661.34
2023-04-15T12:19:23.286Z,99672.66
2023-04-15T12:21:51.991Z,99675.88
2023-04-15T12:24:22.987Z,99671.22
2023-04-15T12:26:52.922Z,99679.25
2023-04-15T12:29:22.243Z,99684.59
2023-04-15T12:31:53.905Z,99681.37
2023-04-15T12:34:29.535Z,99688.09
2023-04-15T12:36:58.841Z,99694.00
2023-04-15T12:39:30.658Z,99701.03
2023-04-15T12:42:00.227Z,99701.03
2023-04-15T12:44:29.793Z,99700.59
2023-04-15T12:46:59.900Z,99745.69
2023-04-15T12:49:29.683Z,99709.91
2023-04-15T12:52:00.038Z,99712.56
2023-04-15T12:54:28.814Z,99716.78
2023-04-15T12:56:58.093Z,99721.97
2023-04-15T12:59:26.485Z,99728.59
2023-04-15T13:01:55.572Z,99724.38
2023-04-15T13:04:25.101Z,99727.66
2023-04-15T13:06:53.121Z,99724.41
2023-04-15T13:09:21.426Z,99736.22
2023-04-15T13:11:50.835Z,99732.56
2023-04-15T13:14:18.873Z,99737.50
2023-04-15T13:16:47.282Z,99739.88
2023-04-15T13:19:15.839Z,99738.59
2023-04-15T13:21:45.519Z,99732.22
2023-04-15T13:24:13.839Z,99739.00
2023-04-15T13:26:42.049Z,99745.91
2023-04-15T13:29:11.576Z,99740.72
2023-04-15T13:31:39.904Z,99746.75
2023-04-15T13:34:08.017Z,99751.25
2023-04-15T13:36:36.268Z,99750.56
2023-04-15T13:39:06.471Z,99752.09
2023-04-15T13:41:34.455Z,99763.09
2023-04-15T13:44:02.743Z,99758.44
2023-04-15T13:46:31.243Z,99768.28
2023-04-15T13:48:59.295Z,99762.38
2023-04-15T13:51:27.921Z,99765.22
2023-04-15T13:53:59.204Z,99760.25
2023-04-15T13:56:30.125Z,99769.56
2023-04-15T13:59:02.360Z,99768.28
2023-04-15T14:01:30.602Z,99768.00
2023-04-15T14:03:59.131Z,99768.56
2023-04-15T14:06:28.110Z,99771.78
2023-04-15T14:08:56.377Z,99773.06
2023-04-15T14:11:24.681Z,99778.41
2023-04-15T14:13:54.172Z,99779.25
2023-04-15T14:16:22.404Z,99784.84
2023-04-15T14:18:50.685Z,99784.84
2023-04-15T14:21:18.870Z,99790.06
2023-04-15T14:23:47.008Z,99798.13
2023-04-15T14:26:15.339Z,99797.53
2023-04-15T14:28:45.049Z,99797.81
2023-04-15T14:31:14.712Z,99801.19
2023-04-15T14:33:43.009Z,99807.53
2023-04-15T14:36:11.274Z,99811.91
2023-04-15T14:38:40.150Z,99819.78
2023-04-15T14:41:09.021Z,99817.69
2023-04-15T14:43:37.493Z,99822.31
2023-04-15T14:46:09.073Z,99824.84
2023-04-15T14:48:38.713Z,99830.44
2023-04-15T14:51:07.099Z,99834.13
2023-04-15T14:53:35.373Z,99839.63
2023-04-15T14:56:03.580Z,99841.44
2023-04-15T14:58:32.795Z,99836.94
2023-04-15T15:01:01.966Z,99837.25
2023-04-15T15:03:30.327Z,99842.72
2023-04-15T15:05:59.854Z,99848.19
2023-04-15T15:08:28.211Z,99854.13
2023-04-15T15:10:56.395Z,99855.81
2023-04-15T15:13:25.364Z,99856.09
2023-04-15T15:15:54.175Z,99862.53
2023-04-15T15:18:22.363Z,99855.94
2023-04-15T15:20:50.371Z,99871.37
2023-04-15T15:23:20.201Z,99869.16
2023-04-15T15:25:48.264Z,99878.59
2023-04-15T15:28:16.245Z,99880.41
2023-04-15T15:30:44.567Z,99878.72
2023-04-15T15:33:12.577Z,99885.91
2023-04-15T15:35:41.027Z,99890.00
2023-04-15T15:38:09.591Z,99891.97
2023-04-15T15:40:38.909Z,99887.47
2023-04-15T15:43:06.890Z,99892.13
2023-04-15T15:45:36.421Z,99895.34
2023-04-15T15:48:05.437Z,99898.47
2023-04-15T15:50:33.701Z,99899.44
2023-04-15T15:53:01.994Z,99905.66
2023-04-15T15:55:30.072Z,99906.47
2023-04-15T15:57:59.426Z,99904.94
2023-04-15T16:00:28.083Z,99910.84
2023-04-15T16:05:29.159Z,99920.41
2023-04-15T16:07:57.547Z,99928.16
2023-04-15T16:10:25.656Z,99930.50
2023-04-15T16:12:53.706Z,99930.50
2023-04-15T16:15:23.564Z,99930.81
2023-04-15T16:17:51.540Z,99939.94
2023-04-15T16:20:20.025Z,99936.00
2023-04-15T16:22:48.466Z,99939.22
2023-04-15T16:25:16.831Z,99943.47
2023-04-15T16:27:57.787Z,99947.81
2023-04-15T16:30:31.351Z,99941.16
2023-04-15T16:32:59.475Z,99944.38
2023-04-15T16:35:27.584Z,99943.84
2023-04-15T16:37:55.982Z,99949.50
2023-04-15T16:40:24.059Z,99948.47
2023-04-15T16:42:52.165Z,99949.34
2023-04-15T16:45:20.652Z,99955.69
2023-04-15T16:47:50.076Z,99953.03
2023-04-15T16:50:18.506Z,99960.00
2023-04-15T16:52:46.868Z,99958.19
2023-04-15T16:55:14.951Z,99960.44
2023-04-15T16:58:02.941Z,99963.37
2023-04-15T17:00:32.040Z,99968.34
2023-04-15T17:03:01.849Z,99971.41
2023-04-15T17:05:30.777Z,99976.75
2023-04-15T17:07:59.180Z,99976.47
2023-04-15T17:10:27.379Z,99979.59
2023-04-15T17:12:57.401Z,99982.53
2023-04-15T17:15:26.082Z,99988.59
2023-04-15T17:18:05.585Z,99983.25
2023-04-15T17:20:35.970Z,99980.97
2023-04-15T17:23:05.060Z,99983.53
2023-04-15T17:25:33.491Z,99990.81
2023-04-15T17:28:02.935Z,99998.59
2023-04-15T17:30:33.414Z,100001.78
2023-04-15T17:33:54.174Z,100007.94
2023-04-15T17:36:30.885Z,100009.16
2023-04-15T17:39:19.340Z,100012.03
2023-04-15T17:42:11.050Z,100019.31
2023-04-15T17:44:59.322Z,100020.06
2023-04-15T17:47:47.584Z,100033.28
2023-04-15T17:50:38.516Z,100028.94
2023-04-15T17:53:26.565Z,100033.44
2023-04-15T17:56:14.753Z,100035.34
2023-04-15T17:59:03.490Z,100040.50
2023-04-15T18:01:51.795Z,100044.03
2023-04-15T18:04:40.424Z,100050.69
2023-04-15T18:07:29.867Z,100046.66
2023-04-15T18:10:18.307Z,100049.19
2023-04-15T18:13:06.473Z,100056.28
2023-04-15T18:15:54.716Z,100062.91
2023-04-15T18:18:42.649Z,100066.06
2023-04-15T18:21:13.414Z,100070.41
2023-04-15T18:23:43.049Z,100078.94
2023-04-15T18:26:11.294Z,100081.37
2023-04-15T18:28:39.925Z,100084.50
2023-04-15T18:31:07.950Z,100085.06
2023-04-15T18:33:36.501Z,100088.72
2023-04-15T18:36:04.790Z,100090.31
2023-04-15T18:38:35.135Z,100095.97
2023-04-15T18:41:05.418Z,100093.56
2023-04-15T18:43:33.560Z,100100.16
2023-04-15T18:46:01.879Z,100097.66
2023-04-15T18:48:30.639Z,100102.63
2023-04-15T18:50:58.744Z,100100.22
2023-04-15T18:53:28.051Z,100108.34
2023-04-15T18:55:56.811Z,100110.47
2023-04-15T18:58:26.241Z,100114.81
2023-04-15T19:00:54.514Z,100120.69
2023-04-15T19:03:22.806Z,100124.28
2023-04-15T19:05:50.819Z,100120.78
2023-04-15T19:08:18.779Z,100129.91
2023-04-15T19:10:47.043Z,100131.03
2023-04-15T19:13:17.719Z,100123.72
2023-04-15T19:15:48.243Z,100134.75
2023-04-15T19:18:16.524Z,100144.44
2023-04-15T19:20:44.904Z,100144.59
2023-04-15T19:23:13.354Z,100139.94
2023-04-15T19:25:41.478Z,100144.34
2023-04-15T19:28:09.584Z,100144.22
2023-04-15T19:30:37.912Z,100149.28
2023-04-15T19:33:07.205Z,100152.69
2023-04-15T19:35:35.271Z,100151.63
2023-04-15T19:38:04.064Z,100156.84
2023-04-15T19:40:32.131Z,100156.84
2023-04-15T19:43:00.120Z,100160.25
2023-04-15T19:45:28.526Z,100159.25
2023-04-15T19:47:57.941Z,100169.97
2023-04-15T19:50:27.790Z,100158.66
2023-04-15T19:52:56.151Z,100161.69
2023-04-15T19:55:24.163Z,100160.47
2023-04-15T19:57:52.129Z,100161.69
2023-04-15T20:00:20.816Z,100164.97
2023-04-15T20:02:49.381Z,100163.91
2023-04-15T20:05:17.547Z,100166.56
2023-04-15T20:07:48.775Z,100166.69
2023-04-15T20:10:17.197Z,100161.22
2023-04-15T20:12:50.994Z,100166.44
2023-04-15T20:15:22.659Z,100168.84
2023-04-15T20:17:51.409Z,100175.06
2023-04-15T20:20:19.741Z,100168.84
2023-04-15T20:22:49.729Z,100168.59
2023-04-15T20:25:18.471Z,100177.34
2023-04-15T20:27:47.958Z,100176.34
2023-04-15T20:30:16.267Z,100181.34
2023-04-15T20:32:44.342Z,100178.69
2023-04-15T20:35:12.391Z,100180.41
2023-04-15T20:37:41.087Z,100184.50
2023-04-15T20:40:11.836Z,100179.03
2023-04-15T20:42:39.835Z,100181.97
2023-04-15T20:45:09.986Z,100181.56
2023-04-15T20:47:38.205Z,100186.47
2023-04-15T20:50:07.142Z,100184.03
2023-04-15T20:52:35.469Z,100186.50
2023-04-15T20:55:03.544Z,100191.00
2023-04-15T20:57:32.837Z,100189.09
2023-04-15T21:00:01.512Z,100200.13
2023-04-15T21:02:29.770Z,100194.44
2023-04-15T21:04:59.246Z,100198.00
2023-04-15T21:07:27.736Z,100199.56
2023-04-15T21:09:56.216Z,100200.69
2023-04-15T21:12:24.347Z,100202.16
2023-04-15T21:14:54.055Z,100206.87
2023-04-15T21:17:22.154Z,100206.50
2023-04-15T21:19:50.126Z,100218.81
2023-04-15T21:22:18.400Z,100215.88
2023-04-15T21:24:46.703Z,100213.31
2023-04-15T21:27:14.707Z,100225.75
2023-04-15T21:29:42.971Z,100221.09
2023-04-15T21:32:12.529Z,100226.31
2023-04-15T21:34:40.623Z,100227.88
2023-04-15T21:37:08.950Z,100230.16
2023-04-15T21:39:36.935Z,100235.75
2023-04-15T21:42:05.156Z,100233.47
2023-04-15T21:44:33.460Z,100238.97
2023-04-15T21:47:02.118Z,100239.53
2023-04-15T21:49:33.371Z,100244.16
2023-04-15T21:52:01.789Z,100247.03
2023-04-15T21:54:31.107Z,100250.19
2023-04-15T21:56:59.058Z,100245.94
2023-04-15T21:59:27.529Z,100258.19
2023-04-15T22:01:55.778Z,100251.63
2023-04-15T22:04:24.297Z,100254.56
2023-04-15T22:06:55.725Z,100260.87
2023-04-15T22:09:24.005Z,100259.53
2023-04-15T22:11:52.090Z,100267.56
2023-04-15T22:14:20.067Z,100266.72
2023-04-15T22:16:48.457Z,100271.44
2023-04-15T22:19:17.716Z,100281.97
2023-04-15T22:21:48.687Z,100283.22
2023-04-15T22:24:31.742Z,100282.53
2023-04-15T22:27:06.160Z,100288.63
2023-04-15T22:29:34.534Z,100283.75
2023-04-15T22:32:02.508Z,100284.94
2023-04-15T22:34:30.485Z,100288.47
2023-04-15T22:36:58.805Z,100293.41
2023-04-15T22:39:28.145Z,100299.03
2023-04-15T22:41:56.800Z,100295.75
2023-04-15T22:44:25.075Z,100306.78
2023-04-15T22:46:53.089Z,100309.22
2023-04-15T22:49:21.122Z,100306.34
2023-04-15T22:51:49.590Z,100310.34
2023-04-15T22:54:17.616Z,100305.37
2023-04-15T22:56:46.958Z,100316.06
2023-04-15T22:59:15.326Z,100312.16
2023-04-15T23:01:43.461Z,100315.53
2023-04-15T23:04:23.162Z,100313.00
2023-04-15T23:06:54.350Z,100313.00
2023-04-15T23:09:22.495Z,100317.63
2023-04-15T23:11:51.927Z,100316.28
2023-04-15T23:14:20.257Z,100322.59
2023-04-15T23:16:48.215Z,100327.94
2023-04-15T23:19:16.303Z,100328.31
2023-04-15T23:21:44.568Z,100331.84
2023-04-15T23:24:12.702Z,100323.56
2023-04-15T23:26:40.826Z,100332.81
2023-04-15T23:29:10.730Z,100329.50
2023-04-15T23:31:38.777Z,100333.16
2023-04-15T23:34:06.907Z,100333.16
2023-04-15T23:36:35.141Z,100329.03
2023-04-15T23:39:03.142Z,100331.47
2023-04-15T23:41:31.086Z,100333.28
2023-04-15T23:43:59.464Z,100339.47
2023-04-15T23:46:28.780Z,100338.41
2023-04-15T23:48:56.866Z,100337.66
2023-04-15T23:51:25.159Z,100331.69
2023-04-15T23:53:53.456Z,100336.69
2023-04-15T23:56:24.189Z,100343.13
2023-04-15T23:58:52.385Z,100339.38
